Ridgefield, Connecticut
Current Conditions -  °F | °C
As of 6:53 AM on Sunday 23 Nov 2014 (Local Time) from KDXR Reporting Station
Scattered Clouds Scattered Clouds  
Wind Chill: 37°   Ceiling: Unl
Heat Index: 37°   Visibility: 10mi
Dew Point: 21°   Wind: 0mph
Humidity: 52%   Direction: NA
Pressure: 30.17"   Gusts: NA
Location:  41.28°N, 73.5°W
Report Text: KDXR 231153Z 00000KT 10SM SCT090 03/M06 A3017 RMK AO2 SLP220 T00281061 10050 20022 53007
Loading
Personal Weather Stations






























Interactive Weather Map New forecast layout! Learn more

10-Day Weather Forecast

Advertisements
Track Severe Weather on mobile